Albion, Oklahoma
Current Conditions -  °F | °C
As of 6:55 AM on Tuesday 21 Oct 2014 (Local Time) from KRKR Reporting Station
Moderate Fog Moderate Fog  
Wind Chill: 14°   Ceiling: 200
Heat Index: 14°   Visibility: 0.25mi
Dew Point: 13°   Wind: 5mph
Humidity: 96%   Direction: 190°S
Pressure: 30.09"   Gusts: NA
Location:  34.66°N, 95.1°W
Report Text: KRKR 211155Z AUTO 19004KT 1/4SM FG OVC002 14/13 A3009 RMK AO2 T01350128 10141 20121
Loading
Personal Weather Stations






























Interactive Weather Map
Tropical Storm Tracking
New forecast layout! Learn more

10-Day Weather Forecast

Advertisements
Track Severe Weather on mobile